Latest Weather Observations for South Channel Island

IDV60801

Issued at 10:42 am EST Tuesday 26 May 2020 (issued every 10 minutes, with the page automatically refreshed every 10 minutes)

About weather observations | Map of weather stations | Latest weather observations for VIC | Other Formats
Station Details ID: 086344 Name: SOUTH CHANNEL ISLAND Lat: -38.31 Lon: 144.80 Height: 9.0 m
Data from the previous 72 hours. | See also: Recent months at South Channel Island
Date/Time
EST
Temp
°C
App
Temp
°C
Dew
Point
°C
Rel
Hum
%
Delta-T
°C
Wind Press
QNH
hPa
Press
MSL
hPa
Rain since
9am
mm
Dir  Spd
km/h
Gust
km/h
Spd
kts
Gust
kts
26/10:30am - - - - - N 20 28 11 15 - - -
26/10:00am - - - - - N 20 28 11 15 - - -
26/09:30am - - - - - NE 22 28 12 15 - - -
26/09:00am - - - - - NE 17 24 9 13 - - -
26/08:30am - - - - - NNE 15 20 8 11 - - -
26/08:00am - - - - - NNE 17 19 9 10 - - -
26/07:30am - - - - - NNE 17 19 9 10 - - -
26/07:00am - - - - - NE 22 28 12 15 - - -
26/06:30am - - - - - ENE 32 33 17 18 - - -
26/06:00am - - - - - ENE 26 30 14 16 - - -
26/05:30am - - - - - NNE 19 22 10 12 - - -
26/05:00am - - - - - ENE 24 30 13 16 - - -
26/04:30am - - - - - ENE 30 33 16 18 - - -
26/04:00am - - - - - ENE 35 41 19 22 - - -
26/03:30am - - - - - E 37 43 20 23 - - -
26/03:00am - - - - - E 39 46 21 25 - - -
26/02:30am - - - - - E 35 41 19 22 - - -
26/02:00am - - - - - E 35 44 19 24 - - -
26/01:30am - - - - - E 37 43 20 23 - - -
26/01:00am - - - - - E 35 44 19 24 - - -
26/12:30am - - - - - E 35 39 19 21 - - -
26/12:00am - - - - - E 32 37 17 20 - - -
 
Date/Time
EST
Temp
°C
App
Temp
°C
Dew
Point
°C
Rel
Hum
%
Delta-T
°C
Wind Press
QNH
hPa
Press
MSL
hPa
Rain since
9am
mm
Dir  Spd
km/h
Gust
km/h
Spd
kts
Gust
kts
25/11:30pm - - - - - E 32 39 17 21 - - -
25/11:00pm - - - - - E 35 41 19 22 - - -
25/10:30pm - - - - - E 37 44 20 24 - - -
25/10:00pm - - - - - E 35 39 19 21 - - -
25/09:30pm - - - - - E 35 39 19 21 - - -
25/09:00pm - - - - - E 33 37 18 20 - - -
25/08:30pm - - - - - ESE 28 32 15 17 - - -
25/08:00pm - - - - - ESE 28 32 15 17 - - -
25/07:30pm - - - - - ESE 24 28 13 15 - - -
25/07:00pm - - - - - SE 20 24 11 13 - - -
25/06:30pm - - - - - ESE 24 28 13 15 - - -
25/06:00pm - - - - - SE 22 28 12 15 - - -
25/05:30pm - - - - - SE 24 26 13 14 - - -
25/05:00pm - - - - - ESE 26 30 14 16 - - -
25/04:30pm - - - - - SE 17 19 9 10 - - -
25/04:00pm - - - - - ESE 22 26 12 14 - - -
25/03:30pm - - - - - ESE 15 20 8 11 - - -
25/03:00pm - - - - - ESE 13 19 7 10 - - -
25/02:30pm - - - - - E 19 24 10 13 - - -
25/02:00pm - - - - - E 20 24 11 13 - - -
25/01:30pm - - - - - E 24 28 13 15 - - -
25/01:00pm - - - - - ESE 22 28 12 15 - - -
25/12:30pm - - - - - E 28 32 15 17 - - -
25/12:00pm - - - - - E 28 33 15 18 - - -
25/11:30am - - - - - E 24 30 13 16 - - -
25/11:00am - - - - - ESE 26 32 14 17 - - -
25/10:30am - - - - - SE 20 26 11 14 - - -
25/10:00am - - - - - SE 20 24 11 13 - - -
25/09:30am - - - - - SE 15 17 8 9 - - -
25/09:00am - - - - - ESE 19 22 10 12 - - -
25/08:30am - - - - - ESE 19 22 10 12 - - -
25/08:00am - - - - - ESE 19 22 10 12 - - -
25/07:30am - - - - - ESE 20 26 11 14 - - -
25/07:00am - - - - - ESE 19 24 10 13 - - -
25/06:30am - - - - - SE 17 19 9 10 - - -
25/06:00am - - - - - SE 11 13 6 7 - - -
25/05:30am - - - - - SSE 11 13 6 7 - - -
25/05:00am - - - - - SSE 13 15 7 8 - - -
25/04:30am - - - - - SSE 13 15 7 8 - - -
25/04:00am - - - - - SSE 9 13 5 7 - - -
25/03:30am - - - - - ESE 11 13 6 7 - - -
25/03:00am - - - - - SSE 11 11 6 6 - - -
25/02:30am - - - - - SE 11 15 6 8 - - -
25/02:00am - - - - - SSE 11 13 6 7 - - -
25/01:30am - - - - - SE 13 15 7 8 - - -
25/01:00am - - - - - SE 13 13 7 7 - - -
25/12:30am - - - - - SE 11 13 6 7 - - -
25/12:00am - - - - - SE 13 15 7 8 - - -
 
Date/Time
EST
Temp
°C
App
Temp
°C
Dew
Point
°C
Rel
Hum
%
Delta-T
°C
Wind Press
QNH
hPa
Press
MSL
hPa
Rain since
9am
mm
Dir  Spd
km/h
Gust
km/h
Spd
kts
Gust
kts
24/11:30pm - - - - - SE 11 13 6 7 - - -
24/11:00pm - - - - - ESE 15 17 8 9 - - -
24/10:30pm - - - - - ESE 13 17 7 9 - - -
24/10:00pm - - - - - SE 13 15 7 8 - - -
24/09:30pm - - - - - SE 13 15 7 8 - - -
24/09:00pm - - - - - SE 13 15 7 8 - - -
24/08:30pm - - - - - SSE 15 17 8 9 - - -
24/08:00pm - - - - - SE 13 17 7 9 - - -
24/07:30pm - - - - - SE 17 19 9 10 - - -
24/07:00pm - - - - - SE 19 24 10 13 - - -
24/06:30pm - - - - - SSE 22 26 12 14 - - -
24/06:00pm - - - - - SSE 24 28 13 15 - - -
24/05:30pm - - - - - SSE 26 30 14 16 - - -
24/05:00pm - - - - - SSE 28 32 15 17 - - -
24/04:30pm - - - - - SSE 32 35 17 19 - - -
24/04:00pm - - - - - S 30 33 16 18 - - -
24/03:30pm - - - - - S 32 35 17 19 - - -
24/03:00pm - - - - - S 32 35 17 19 - - -
24/02:39pm - - - - - S 32 54 17 29 - - -
24/02:30pm - - - - - SSW 32 35 17 19 - - -
24/02:00pm - - - - - SSW 30 35 16 19 - - -
24/01:30pm - - - - - SSW 32 35 17 19 - - -
24/01:00pm - - - - - S 33 39 18 21 - - -
24/12:30pm - - - - - S 28 33 15 18 - - -
24/12:00pm - - - - - S 32 37 17 20 - - -
24/11:30am - - - - - SSW 32 35 17 19 - - -
24/11:00am - - - - - S 35 39 19 21 - - -
24/10:30am - - - - - S 37 44 20 24 - - -
24/10:00am - - - - - S 39 46 21 25 - - -
24/09:30am - - - - - S 41 50 22 27 - - -
24/09:00am - - - - - S 37 44 20 24 - - -
24/08:30am - - - - - S 37 44 20 24 - - -
24/08:00am - - - - - S 39 46 21 25 - - -
24/07:30am - - - - - S 35 46 19 25 - - -
24/07:00am - - - - - S 33 41 18 22 - - -
24/06:30am - - - - - S 35 39 19 21 - - -
24/06:00am - - - - - SSE 33 37 18 20 - - -
24/05:30am - - - - - S 33 43 18 23 - - -
24/05:00am - - - - - S 37 44 20 24 - - -
24/04:30am - - - - - S 37 43 20 23 - - -
24/04:00am - - - - - S 35 39 19 21 - - -
24/03:30am - - - - - S 39 43 21 23 - - -
24/03:00am - - - - - SSW 41 52 22 28 - - -
24/02:30am - - - - - S 35 44 19 24 - - -
24/02:00am - - - - - S 37 46 20 25 - - -
24/01:30am - - - - - SSW 37 44 20 24 - - -
24/01:00am - - - - - S 37 48 20 26 - - -
24/12:30am - - - - - SSW 39 46 21 25 - - -
24/12:00am - - - - - SSW 43 56 23 30 - - -
 
Date/Time
EST
Temp
°C
App
Temp
°C
Dew
Point
°C
Rel
Hum
%
Delta-T
°C
Wind Press
QNH
hPa
Press
MSL
hPa
Rain since
9am
mm
Dir  Spd
km/h
Gust
km/h
Spd
kts
Gust
kts
23/11:30pm - - - - - S 35 50 19 27 - - -
23/11:00pm - - - - - SSW 41 48 22 26 - - -
23/10:30pm - - - - - S 44 54 24 29 - - -
23/10:00pm - - - - - SSW 43 54 23 29 - - -
23/09:30pm - - - - - SSW 37 46 20 25 - - -
23/09:00pm - - - - - S 35 46 19 25 - - -
23/08:30pm - - - - - SSW 37 48 20 26 - - -
23/08:00pm - - - - - S 35 41 19 22 - - -
23/07:30pm - - - - - S 32 39 17 21 - - -
23/07:00pm - - - - - S 33 41 18 22 - - -
23/06:30pm - - - - - SSW 33 44 18 24 - - -
23/06:00pm - - - - - S 37 50 20 27 - - -
23/05:46pm - - - - - S 37 56 20 30 - - -
23/05:30pm - - - - - S 32 43 17 23 - - -
23/05:00pm - - - - - SSW 33 39 18 21 - - -
23/04:36pm - - - - - S 35 54 19 29 - - -
23/04:30pm - - - - - S 33 39 18 21 - - -
23/04:00pm - - - - - S 32 37 17 20 - - -
23/03:30pm - - - - - S 33 39 18 21 - - -
23/03:00pm - - - - - SSW 35 44 19 24 - - -
23/02:30pm - - - - - SSW 30 35 16 19 - - -
23/02:00pm - - - - - SSW 37 48 20 26 - - -
23/01:30pm - - - - - SSW 32 37 17 20 - - -
23/01:00pm - - - - - SSW 30 37 16 20 - - -
23/12:30pm - - - - - SSW 24 35 13 19 - - -
23/12:00pm - - - - - S 17 26 9 14 - - -
23/11:30am - - - - - S 20 26 11 14 - - -
23/11:00am - - - - - S 17 20 9 11 - - -

Other formats

Comma delimited format used in spreadsheet applications
http://www.bom.gov.au/fwo/IDV60801/IDV60801.94853.axf

JavaScript Object Notation format (JSON) in row-major order
http://www.bom.gov.au/fwo/IDV60801/IDV60801.94853.json

Data quality

Most of these data are generated automatically and are frequently updated. Quality checks on data are not normally performed. It is possible for incorrect values to appear. Refer to information at About Latest Weather Observations and please check the disclaimer before using these data.